Time;durP1;ratioP1;P1;durP2;ratioP2;P2;SDS_P1;SDS_P2;PMS_P1;PMS_P2;Temp;Humidity;BMP_temperature;BMP_pressure;BME280_temperature;BME280_humidity;BME280_pressure;Samples;Min_cycle;Max_cycle;Signal;HPM_P1;HPM_P2
2021/11/11 00:00:12;;;;;;;9.35;5.45;;;;;;;-2.19;96.23;102906.11;1749205;82;20964;-42
2021/11/11 00:02:40;;;;;;;13.90;6.50;;;;;;;-2.24;96.40;102903.98;1749321;80;21593;-42
2021/11/11 00:05:09;;;;;;;11.38;6.78;;;;;;;-2.28;96.57;102893.98;1718296;82;20909;-42
2021/11/11 00:07:37;;;;;;;9.28;6.03;;;;;;;-2.33;96.62;102873.38;1734901;82;21148;-42
2021/11/11 00:10:10;;;;;;;8.93;5.25;;;;;;;-2.38;96.56;102877.23;1743203;81;20905;-42
2021/11/11 00:12:37;;;;;;;12.07;5.30;;;;;;;-2.45;96.54;102869.92;1743449;82;21509;-42
2021/11/11 00:15:07;;;;;;;16.23;6.65;;;;;;;-2.48;96.60;102865.89;1714020;82;21612;-42
2021/11/11 00:17:34;;;;;;;10.20;6.00;;;;;;;-2.50;96.63;102868.70;1743385;82;20976;-42
2021/11/11 00:20:01;;;;;;;8.33;5.83;;;;;;;-2.52;96.62;102864.80;1743470;82;21092;-42
2021/11/11 00:22:27;;;;;;;11.38;6.17;;;;;;;-2.54;96.61;102859.11;1743085;82;20886;-42
2021/11/11 00:24:54;;;;;;;8.20;5.92;;;;;;;-2.55;96.62;102854.80;1743262;82;20948;-42
2021/11/11 00:27:20;;;;;;;10.70;5.78;;;;;;;-2.56;96.72;102850.09;1743224;81;20932;-42
2021/11/11 00:29:49;;;;;;;10.23;5.37;;;;;;;-2.57;96.63;102847.47;1743426;82;21020;-42
2021/11/11 00:32:15;;;;;;;11.30;5.97;;;;;;;-2.58;96.54;102848.23;1743440;81;21077;-43
2021/11/11 00:34:43;;;;;;;11.18;6.15;;;;;;;-2.60;96.49;102838.86;1743047;81;20920;-43
2021/11/11 00:37:10;;;;;;;7.80;4.47;;;;;;;-2.61;96.36;102845.08;1743387;82;21613;-43
2021/11/11 00:39:36;;;;;;;11.97;4.83;;;;;;;-2.62;96.21;102854.73;1743507;81;20897;-43
2021/11/11 00:42:04;;;;;;;10.08;5.15;;;;;;;-2.62;96.07;102858.53;1743373;82;20972;-43
2021/11/11 00:44:30;;;;;;;10.55;5.20;;;;;;;-2.61;95.96;102862.83;1743595;81;21032;-43
2021/11/11 00:46:59;;;;;;;8.63;4.90;;;;;;;-2.61;95.73;102856.13;1743257;81;20968;-43
2021/11/11 00:49:25;;;;;;;7.55;4.85;;;;;;;-2.61;95.49;102842.17;1743436;81;20989;-43
2021/11/11 00:51:52;;;;;;;7.95;5.17;;;;;;;-2.59;95.34;102837.19;1743273;82;20924;-43
2021/11/11 00:54:18;;;;;;;7.72;5.08;;;;;;;-2.61;95.26;102837.09;1743435;81;21398;-43
2021/11/11 00:56:45;;;;;;;12.43;4.65;;;;;;;-2.61;95.16;102842.17;1743136;82;21238;-43
2021/11/11 00:59:12;;;;;;;7.60;4.10;;;;;;;-2.63;95.11;102847.89;1743056;81;21007;-43
2021/11/11 01:01:38;;;;;;;8.73;4.40;;;;;;;-2.67;94.95;102853.11;1743368;82;20972;-43
2021/11/11 01:04:07;;;;;;;9.00;4.25;;;;;;;-2.71;94.94;102857.86;1743276;82;20980;-43
2021/11/11 01:06:34;;;;;;;10.50;4.20;;;;;;;-2.72;94.82;102860.77;1748432;81;20960;-43
2021/11/11 01:09:01;;;;;;;13.80;4.85;;;;;;;-2.71;94.76;102861.66;1749150;82;21988;-43
2021/11/11 01:11:27;;;;;;;6.10;4.10;;;;;;;-2.69;94.51;102856.31;1749524;82;20951;-43
2021/11/11 01:13:54;;;;;;;10.18;4.30;;;;;;;-2.71;94.24;102840.97;1749130;82;20928;-43
2021/11/11 01:16:20;;;;;;;6.67;4.50;;;;;;;-2.73;94.22;102844.19;1748977;82;20991;-43
2021/11/11 01:21:31;;;;;;;13.50;4.25;;;;;;;-2.75;94.02;102852.56;1797643;79;22306;-43
2021/11/11 01:23:58;;;;;;;10.30;4.05;;;;;;;-2.82;93.98;102838.91;1757549;81;21450;-43
2021/11/11 01:26:25;;;;;;;11.33;4.67;;;;;;;-2.83;93.92;102836.27;1749645;81;21045;-42
2021/11/11 01:28:52;;;;;;;9.05;4.95;;;;;;;-2.85;93.75;102841.21;1719481;82;20909;-43
2021/11/11 01:31:21;;;;;;;24.70;5.72;;;;;;;-2.88;93.66;102834.65;1749078;82;20987;-43
2021/11/11 01:33:49;;;;;;;19.50;4.80;;;;;;;-2.91;93.61;102835.28;1749165;82;20968;-43
2021/11/11 01:36:16;;;;;;;22.90;5.03;;;;;;;-2.94;93.57;102828.72;1749523;82;20973;-43
2021/11/11 01:38:47;;;;;;;14.95;4.72;;;;;;;-2.95;93.54;102826.95;1748487;82;21164;-42
2021/11/11 01:41:13;;;;;;;26.93;4.83;;;;;;;-3.00;93.67;102814.33;1749085;82;20932;-43
2021/11/11 01:43:40;;;;;;;30.65;5.50;;;;;;;-3.04;93.62;102807.27;1749044;81;21011;-42
2021/11/11 01:46:08;;;;;;;24.65;5.33;;;;;;;-3.05;93.52;102806.77;1749093;82;20975;-42
2021/11/11 01:48:35;;;;;;;27.13;5.37;;;;;;;-3.01;93.20;102804.96;1749084;81;21655;-42
2021/11/11 01:51:03;;;;;;;29.37;4.87;;;;;;;-2.95;92.94;102803.28;1748932;82;21494;-43
2021/11/11 01:53:32;;;;;;;28.62;5.37;;;;;;;-2.93;92.64;102807.67;1748425;82;21478;-40
2021/11/11 01:55:58;;;;;;;40.65;6.92;;;;;;;-2.91;92.37;102803.59;1749111;81;21421;-40
2021/11/11 01:58:26;;;;;;;56.02;8.88;;;;;;;-2.93;92.33;102808.94;1749141;82;20948;-40
2021/11/11 02:00:56;;;;;;;50.83;7.42;;;;;;;-2.95;92.23;102816.81;1749100;82;21528;-40
2021/11/11 02:03:24;;;;;;;35.95;6.47;;;;;;;-2.94;92.07;102812.65;1747698;80;21358;-41
2021/11/11 02:06:02;;;;;;;47.73;7.20;;;;;;;-2.93;91.54;102822.02;1704109;84;21025;-42
2021/11/11 02:08:30;;;;;;;65.42;7.87;;;;;;;-2.91;91.24;102810.34;1745921;82;21018;-42
2021/11/11 02:10:59;;;;;;;60.30;7.72;;;;;;;-2.92;90.87;102808.17;1749038;81;21502;-42
2021/11/11 02:13:26;;;;;;;18.90;4.30;;;;;;;-2.92;90.61;102808.58;1749149;82;20963;-42
2021/11/11 02:15:52;;;;;;;45.50;5.83;;;;;;;-2.88;90.65;102802.95;1749157;82;21126;-42
2021/11/11 02:18:19;;;;;;;16.77;4.85;;;;;;;-2.82;90.57;102794.93;1749027;82;21545;-42
2021/11/11 02:20:46;;;;;;;18.45;4.72;;;;;;;-2.79;90.28;102788.81;1741467;82;20956;-42
2021/11/11 02:23:17;;;;;;;14.83;4.70;;;;;;;-2.79;89.96;102792.63;1735070;82;20960;-42
2021/11/11 02:25:59;;;;;;;7.25;4.20;;;;;;;-2.77;89.75;102789.81;1735626;81;21566;-42
2021/11/11 02:28:28;;;;;;;15.03;4.83;;;;;;;-2.75;89.62;102797.14;1735527;82;21148;-42
2021/11/11 02:30:55;;;;;;;18.52;4.50;;;;;;;-2.74;89.41;102800.17;1735615;82;20984;-41
2021/11/11 02:33:25;;;;;;;15.48;4.15;;;;;;;-2.74;89.08;102803.98;1734072;82;20969;-43
2021/11/11 02:35:52;;;;;;;6.28;3.50;;;;;;;-2.72;88.95;102806.23;1735109;82;20953;-42
2021/11/11 02:38:19;;;;;;;5.90;4.08;;;;;;;-2.68;88.58;102808.23;1714814;82;20981;-42
2021/11/11 02:40:45;;;;;;;7.53;4.65;;;;;;;-2.63;88.39;102805.67;1735006;82;21192;-42
2021/11/11 02:43:13;;;;;;;7.87;4.20;;;;;;;-2.56;88.24;102803.58;1714135;82;21518;-42
2021/11/11 02:45:43;;;;;;;4.85;3.85;;;;;;;-2.48;87.69;102810.08;1735244;82;20980;-42
2021/11/11 02:48:13;;;;;;;6.20;3.87;;;;;;;-2.42;87.32;102816.86;1735204;82;21040;-42
2021/11/11 02:50:49;;;;;;;6.95;4.40;;;;;;;-2.33;86.70;102817.92;1735362;81;21534;-42
2021/11/11 02:53:16;;;;;;;8.00;4.28;;;;;;;-2.29;85.78;102811.02;1735398;82;21071;-42
2021/11/11 02:55:44;;;;;;;9.93;5.58;;;;;;;-2.26;85.51;102809.10;1735161;82;20956;-42
2021/11/11 02:58:11;;;;;;;9.48;4.70;;;;;;;-2.32;85.40;102810.44;1735276;82;21019;-42
2021/11/11 03:00:47;;;;;;;20.77;5.62;;;;;;;-2.38;85.20;102820.14;1735285;82;20972;-42
2021/11/11 03:03:16;;;;;;;24.70;6.20;;;;;;;-2.43;85.23;102815.09;1735150;82;20968;-42
2021/11/11 03:05:42;;;;;;;33.05;7.50;;;;;;;-2.50;85.39;102808.72;1735311;81;22157;-42
2021/11/11 03:08:11;;;;;;;31.82;6.72;;;;;;;-2.54;85.48;102805.84;1735316;82;20891;-42
2021/11/11 03:10:42;;;;;;;23.47;6.03;;;;;;;-2.58;85.51;102813.59;1713822;82;20941;-43
2021/11/11 03:13:10;;;;;;;10.35;6.12;;;;;;;-2.60;85.72;102823.64;1735198;81;21015;-42
2021/11/11 03:15:37;;;;;;;11.93;6.25;;;;;;;-2.62;85.81;102821.75;1735168;82;20925;-42
2021/11/11 03:18:06;;;;;;;16.12;7.15;;;;;;;-2.67;85.77;102815.47;1735319;82;21945;-42
2021/11/11 03:20:33;;;;;;;14.93;7.45;;;;;;;-2.71;85.84;102818.15;1739807;82;21481;-42
2021/11/11 03:23:01;;;;;;;12.68;8.53;;;;;;;-2.76;86.00;102816.93;1749209;82;21019;-42
2021/11/11 03:25:31;;;;;;;11.53;7.15;;;;;;;-2.80;86.25;102809.87;1749133;81;21007;-42
2021/11/11 03:27:59;;;;;;;16.48;6.85;;;;;;;-2.83;86.42;102810.91;1749184;81;20909;-42
2021/11/11 03:30:27;;;;;;;13.48;7.75;;;;;;;-2.86;86.61;102806.89;1749236;82;21106;-42
2021/11/11 03:32:56;;;;;;;11.10;6.20;;;;;;;-2.88;86.78;102811.83;1749215;82;20984;-42
2021/11/11 03:35:24;;;;;;;22.73;7.80;;;;;;;-2.88;86.88;102802.95;1749353;82;20967;-42
2021/11/11 03:37:52;;;;;;;11.80;6.72;;;;;;;-2.80;86.96;102804.40;1749141;82;20991;-42
2021/11/11 03:40:26;;;;;;;13.13;6.50;;;;;;;-2.64;86.33;102802.64;1749613;81;21442;-42
2021/11/11 03:42:54;;;;;;;13.70;5.97;;;;;;;-2.54;86.06;102798.23;1749238;82;21039;-42
2021/11/11 03:45:22;;;;;;;15.43;5.75;;;;;;;-2.47;85.05;102792.45;1749130;81;20956;-42
2021/11/11 03:47:51;;;;;;;13.70;5.83;;;;;;;-2.39;84.82;102793.38;1749206;81;20905;-41
2021/11/11 03:50:18;;;;;;;12.70;6.37;;;;;;;-2.35;84.52;102782.67;1749318;81;20991;-42
2021/11/11 03:52:45;;;;;;;9.30;5.87;;;;;;;-2.37;84.45;102780.05;1749090;81;21466;-42
2021/11/11 03:55:14;;;;;;;12.95;6.70;;;;;;;-2.40;84.47;102783.63;1749107;82;20877;-41
2021/11/11 03:57:41;;;;;;;18.85;6.90;;;;;;;-2.44;84.41;102777.81;1749252;82;21502;-42
2021/11/11 04:00:11;;;;;;;32.20;8.50;;;;;;;-2.52;84.50;102774.75;1721590;82;20969;-42
2021/11/11 04:02:41;;;;;;;37.63;8.33;;;;;;;-2.63;84.63;102768.89;1749275;82;20968;-41
2021/11/11 04:05:09;;;;;;;49.10;9.05;;;;;;;-2.72;85.00;102771.14;1749203;82;20972;-42
2021/11/11 04:07:37;;;;;;;30.68;7.30;;;;;;;-2.85;85.46;102753.74;1749118;82;21136;-42
2021/11/11 04:10:07;;;;;;;25.50;7.22;;;;;;;-2.89;85.74;102757.73;1748990;81;20984;-42
2021/11/11 04:12:34;;;;;;;22.20;7.58;;;;;;;-2.89;85.86;102752.66;1749030;81;21549;-42
2021/11/11 04:15:01;;;;;;;23.62;7.12;;;;;;;-2.88;85.90;102756.05;1721669;82;20948;-41
2021/11/11 04:17:28;;;;;;;36.25;7.62;;;;;;;-2.91;86.15;102744.02;1749121;82;20904;-41
2021/11/11 04:19:55;;;;;;;37.10;8.23;;;;;;;-2.91;86.33;102744.42;1749333;82;21879;-42
2021/11/11 04:22:22;;;;;;;33.95;7.20;;;;;;;-2.91;86.28;102740.22;1749161;81;20924;-41
2021/11/11 04:24:51;;;;;;;33.05;7.75;;;;;;;-2.90;86.22;102735.68;1749207;80;20937;-41
2021/11/11 04:27:25;;;;;;;22.40;8.05;;;;;;;-2.89;86.23;102729.84;1749132;82;20909;-41
2021/11/11 04:30:02;;;;;;;29.85;9.10;;;;;;;-2.86;86.13;102729.16;1748567;80;21003;-41
2021/11/11 04:32:17;;;;;;;44.42;9.05;;;;;;;-2.84;86.00;102731.83;1746570;82;21831;-42
2021/11/11 04:34:46;;;;;;;32.67;9.48;;;;;;;-2.81;86.08;102735.84;1749177;80;20979;-41
2021/11/11 04:37:40;;;;;;;64.17;10.30;;;;;;;-2.82;86.08;102728.61;1749299;82;21050;-41
2021/11/11 04:40:23;;;;;;;26.30;9.90;;;;;;;-2.83;85.92;102735.72;1740618;82;21003;-41
2021/11/11 04:42:56;;;;;;;24.37;9.18;;;;;;;-2.84;85.97;102726.34;1745325;82;20964;-41
2021/11/11 05:03:38;;;;;;;30.68;8.88;;;;;;;-2.71;85.03;102721.78;1749366;82;20972;-41
2021/11/11 05:06:06;;;;;;;25.48;8.50;;;;;;;-2.69;85.11;102722.77;1749045;82;20893;-41
2021/11/11 05:08:33;;;;;;;19.62;7.95;;;;;;;-2.64;84.98;102725.66;1749389;82;20976;-40
2021/11/11 05:11:01;;;;;;;15.40;7.58;;;;;;;-2.64;84.95;102725.28;1749223;82;21923;-41
2021/11/11 05:13:30;;;;;;;16.17;7.30;;;;;;;-2.60;84.26;102732.34;1749008;80;20928;-41
2021/11/11 05:15:58;;;;;;;13.32;7.12;;;;;;;-2.53;83.51;102731.50;1749248;82;21007;-41
2021/11/11 05:18:25;;;;;;;14.65;7.83;;;;;;;-2.44;83.32;102729.61;1749555;82;21956;-41
2021/11/11 05:20:51;;;;;;;16.62;6.78;;;;;;;-2.40;82.96;102735.42;1749096;82;21336;-41
2021/11/11 05:23:18;;;;;;;14.30;7.40;;;;;;;-2.37;82.78;102733.48;1749112;82;21153;-41
2021/11/11 05:25:45;;;;;;;13.70;6.65;;;;;;;-2.33;82.49;102732.91;1748980;82;20917;-41
2021/11/11 05:28:13;;;;;;;16.82;7.83;;;;;;;-2.30;82.40;102735.66;1749083;82;21026;-41
2021/11/11 05:30:39;;;;;;;19.62;6.97;;;;;;;-2.29;82.21;102731.48;1749398;82;20971;-41
2021/11/11 05:33:07;;;;;;;19.32;6.67;;;;;;;-2.26;81.42;102731.33;1749050;82;21568;-43
2021/11/11 05:35:34;;;;;;;16.73;6.53;;;;;;;-2.20;81.38;102731.75;1749205;82;21183;-42
2021/11/11 05:38:01;;;;;;;18.20;6.58;;;;;;;-2.17;81.20;102731.97;1748959;81;20897;-42
2021/11/11 05:40:27;;;;;;;22.35;7.37;;;;;;;-2.12;81.16;102731.03;1749141;82;21643;-41
2021/11/11 05:42:55;;;;;;;14.20;6.67;;;;;;;-2.09;81.04;102729.97;1749167;82;21019;-42
2021/11/11 05:45:22;;;;;;;17.32;6.70;;;;;;;-2.05;80.89;102733.22;1749233;82;21011;-41
2021/11/11 05:47:50;;;;;;;19.75;6.90;;;;;;;-2.03;80.86;102730.77;1749211;82;21854;-41
2021/11/11 05:50:17;;;;;;;11.12;6.40;;;;;;;-2.01;80.61;102727.98;1749037;82;20960;-42
2021/11/11 05:52:44;;;;;;;15.13;7.05;;;;;;;-1.98;80.67;102723.48;1721256;82;20956;-42
2021/11/11 05:55:11;;;;;;;14.20;5.58;;;;;;;-1.95;80.44;102730.93;1749040;82;21529;-41
2021/11/11 05:57:38;;;;;;;11.88;6.47;;;;;;;-1.92;80.29;102732.78;1749454;82;21019;-41
2021/11/11 06:00:11;;;;;;;17.45;7.28;;;;;;;-1.87;79.61;102734.02;1749168;82;21138;-42
2021/11/11 06:02:47;;;;;;;12.78;6.70;;;;;;;-1.80;79.52;102737.45;1723486;82;20983;-41
2021/11/11 06:05:16;;;;;;;12.40;6.67;;;;;;;-1.74;79.17;102732.79;1745408;82;20901;-42
2021/11/11 06:07:42;;;;;;;16.75;6.72;;;;;;;-1.68;78.75;102738.69;1749093;80;21443;-42
2021/11/11 06:10:10;;;;;;;14.50;6.28;;;;;;;-1.60;78.76;102733.73;1749339;82;20897;-42
2021/11/11 06:12:36;;;;;;;16.02;6.87;;;;;;;-1.53;78.62;102731.23;1749544;80;22090;-41
2021/11/11 06:15:04;;;;;;;18.80;6.75;;;;;;;-1.46;78.37;102742.70;1749142;82;20999;-41
2021/11/11 06:17:32;;;;;;;17.95;6.37;;;;;;;-1.39;78.05;102740.16;1749258;82;20944;-42
2021/11/11 06:20:00;;;;;;;16.87;7.40;;;;;;;-1.32;77.75;102744.89;1749316;82;21007;-41
2021/11/11 06:22:29;;;;;;;21.25;7.17;;;;;;;-1.23;77.18;102734.47;1749345;81;21308;-46
2021/11/11 06:24:55;;;;;;;23.47;7.67;;;;;;;-1.11;76.84;102742.03;1749128;82;21549;-42
2021/11/11 06:27:22;;;;;;;18.42;7.12;;;;;;;-1.02;76.76;102747.71;1749288;82;20936;-42
2021/11/11 06:29:49;;;;;;;20.17;7.47;;;;;;;-0.93;75.98;102748.30;1749505;82;20935;-40
2021/11/11 06:32:15;;;;;;;12.50;6.45;;;;;;;-0.83;75.97;102740.02;1749306;82;20999;-42
2021/11/11 06:34:42;;;;;;;18.55;6.92;;;;;;;-0.76;75.60;102737.98;1749509;82;20948;-43
2021/11/11 06:37:09;;;;;;;15.30;6.35;;;;;;;-0.68;75.11;102742.27;1749436;82;21798;-42
2021/11/11 06:39:37;;;;;;;10.30;5.90;;;;;;;-0.63;74.68;102733.30;1749076;82;20897;-42
2021/11/11 06:42:04;;;;;;;16.32;5.97;;;;;;;-0.56;74.10;102725.63;1749298;82;21011;-42
2021/11/11 06:44:31;;;;;;;16.40;5.87;;;;;;;-0.49;74.20;102724.37;1749129;82;20928;-42
2021/11/11 06:46:58;;;;;;;7.15;5.53;;;;;;;-0.40;73.81;102717.30;1749162;82;20912;-42
2021/11/11 06:49:24;;;;;;;12.23;5.95;;;;;;;-0.34;72.73;102716.44;1749281;82;21493;-42
2021/11/11 06:51:50;;;;;;;8.58;5.53;;;;;;;-0.27;72.19;102707.91;1749078;80;20960;-42
2021/11/11 06:54:17;;;;;;;11.90;5.80;;;;;;;-0.21;71.68;102706.62;1749379;82;20995;-43
2021/11/11 06:56:43;;;;;;;15.60;5.92;;;;;;;-0.15;71.78;102705.73;1749244;81;21459;-42
2021/11/11 06:59:10;;;;;;;13.28;5.72;;;;;;;-0.07;71.95;102706.20;1749340;82;20981;-43
2021/11/11 07:01:37;;;;;;;12.05;6.87;;;;;;;-0.01;71.20;102698.94;1749184;81;21056;-42
2021/11/11 07:04:05;;;;;;;9.63;5.62;;;;;;;0.09;71.64;102704.58;1749282;82;21015;-42
2021/11/11 07:06:32;;;;;;;11.20;6.30;;;;;;;0.17;71.32;102707.59;1749339;82;21623;-42
2021/11/11 07:08:58;;;;;;;12.45;6.05;;;;;;;0.25;71.11;102699.63;1749289;82;21502;-42
2021/11/11 07:11:25;;;;;;;11.03;6.03;;;;;;;0.34;71.10;102703.12;1749495;82;20991;-43
2021/11/11 07:13:52;;;;;;;9.88;5.20;;;;;;;0.44;71.01;102694.37;1749123;81;21083;-42
2021/11/11 07:16:18;;;;;;;10.05;5.83;;;;;;;0.55;70.86;102686.08;1749549;82;21458;-42
2021/11/11 07:18:45;;;;;;;12.10;6.17;;;;;;;0.66;70.66;102685.44;1721167;82;20940;-43
2021/11/11 07:21:11;;;;;;;16.25;6.28;;;;;;;0.76;69.10;102681.34;1748525;81;20979;-42
2021/11/11 07:23:38;;;;;;;13.22;6.08;;;;;;;0.85;69.64;102678.44;1735283;82;20968;-43
2021/11/11 07:26:04;;;;;;;19.17;5.87;;;;;;;0.94;68.59;102678.95;1735140;81;21115;-43
2021/11/11 07:28:31;;;;;;;13.45;5.78;;;;;;;1.02;68.58;102681.09;1735268;82;21023;-42
2021/11/11 07:30:58;;;;;;;21.65;6.17;;;;;;;1.10;67.35;102679.42;1735308;82;22139;-42
2021/11/11 07:33:26;;;;;;;10.72;5.95;;;;;;;1.16;67.34;102672.93;1735242;82;20973;-43
2021/11/11 07:35:53;;;;;;;12.00;5.90;;;;;;;1.24;66.83;102670.40;1714288;82;21451;-43
2021/11/11 07:38:20;;;;;;;12.05;5.45;;;;;;;1.32;67.29;102664.04;1735662;82;21740;-43
2021/11/11 07:40:46;;;;;;;8.33;5.25;;;;;;;1.39;67.43;102672.53;1735098;82;20937;-42
2021/11/11 07:43:13;;;;;;;16.52;5.87;;;;;;;1.47;66.07;102671.66;1735208;82;20921;-43
2021/11/11 07:45:42;;;;;;;16.02;5.35;;;;;;;1.55;66.26;102661.86;1735170;82;20937;-43
2021/11/11 07:48:08;;;;;;;12.00;5.83;;;;;;;1.64;65.03;102654.72;1735211;82;21068;-43
2021/11/11 07:50:38;;;;;;;12.30;5.90;;;;;;;1.72;64.94;102655.11;1735465;82;21771;-43
2021/11/11 07:53:09;;;;;;;10.32;5.55;;;;;;;1.80;64.96;102651.69;1735040;82;21004;-42
2021/11/11 07:55:33;;;;;;;10.93;5.40;;;;;;;1.92;65.02;102642.52;1735251;82;20885;-41
2021/11/11 07:58:00;;;;;;;11.78;5.58;;;;;;;2.03;64.31;102640.52;1735206;82;20972;-42
2021/11/11 08:00:27;;;;;;;15.45;5.50;;;;;;;2.11;63.61;102640.13;1735297;82;21483;-42
2021/11/11 08:02:53;;;;;;;11.30;5.42;;;;;;;2.19;62.75;102648.19;1735374;81;21549;-42
2021/11/11 08:05:20;;;;;;;19.50;5.62;;;;;;;2.20;62.17;102647.39;1735234;82;21300;-42
2021/11/11 08:07:48;;;;;;;25.92;6.55;;;;;;;2.28;62.14;102649.92;1735373;82;20941;-43
2021/11/11 08:10:17;;;;;;;24.57;6.80;;;;;;;2.35;60.14;102648.95;1735098;82;21043;-42
2021/11/11 08:12:44;;;;;;;31.12;6.95;;;;;;;2.41;61.01;102640.34;1735424;82;21013;-42
2021/11/11 08:15:14;;;;;;;24.72;6.87;;;;;;;2.46;59.97;102643.11;1735129;82;20941;-42
2021/11/11 08:17:41;;;;;;;25.45;6.33;;;;;;;2.56;60.70;102638.95;1735302;82;21494;-42
2021/11/11 08:20:10;;;;;;;25.50;7.67;;;;;;;2.65;60.68;102643.23;1735219;82;20960;-42
2021/11/11 08:22:36;;;;;;;36.38;7.72;;;;;;;2.76;59.24;102636.47;1714120;82;21225;-42
2021/11/11 08:25:06;;;;;;;25.65;7.03;;;;;;;2.77;58.38;102631.83;1735178;82;20985;-42
2021/11/11 08:27:34;;;;;;;46.00;7.85;;;;;;;2.70;59.10;102630.67;1735395;82;21108;-42
2021/11/11 08:30:00;;;;;;;31.52;7.72;;;;;;;2.82;60.28;102628.70;1735132;82;20918;-42
2021/11/11 08:32:26;;;;;;;25.95;7.05;;;;;;;2.97;58.47;102615.77;1735487;81;20980;-43
2021/11/11 08:34:53;;;;;;;38.25;7.10;;;;;;;3.10;58.59;102607.40;1735304;81;21510;-43
2021/11/11 08:37:20;;;;;;;25.70;7.00;;;;;;;3.14;58.67;102611.43;1735251;82;21735;-43
2021/11/11 08:39:46;;;;;;;24.52;7.10;;;;;;;3.26;57.58;102612.83;1735212;82;21047;-43
2021/11/11 08:42:16;;;;;;;20.65;6.75;;;;;;;3.40;56.81;102615.59;1735107;82;21565;-42
2021/11/11 08:44:43;;;;;;;19.73;6.55;;;;;;;3.48;55.88;102615.95;1735189;82;20968;-42
2021/11/11 08:47:12;;;;;;;21.07;6.30;;;;;;;3.61;55.92;102617.39;1735356;82;21495;-42
2021/11/11 08:49:40;;;;;;;21.57;5.80;;;;;;;3.71;54.83;102619.58;1714119;82;20984;-42
2021/11/11 08:52:07;;;;;;;27.20;6.12;;;;;;;3.74;53.78;102610.73;1735349;82;21762;-42
2021/11/11 08:54:33;;;;;;;25.50;6.78;;;;;;;3.72;53.63;102608.52;1734839;81;21000;-43
2021/11/11 08:57:00;;;;;;;22.50;6.58;;;;;;;3.74;53.18;102600.48;1735158;82;20937;-42
2021/11/11 08:59:26;;;;;;;24.07;6.47;;;;;;;3.73;53.44;102593.62;1734964;81;21549;-43
2021/11/11 09:01:56;;;;;;;18.70;6.55;;;;;;;3.76;54.07;102592.86;1735194;82;21063;-42
2021/11/11 09:04:22;;;;;;;16.85;6.83;;;;;;;3.76;54.07;102592.86;1734975;82;21898;-42
2021/11/11 09:06:50;;;;;;;14.07;5.55;;;;;;;3.96;55.24;102590.29;1714722;82;20952;-42
2021/11/11 09:09:20;;;;;;;14.40;5.37;;;;;;;3.96;55.24;102590.29;1735262;82;20952;-45
2021/11/11 09:11:47;;;;;;;12.98;5.28;;;;;;;4.10;54.09;102587.03;1734257;81;20980;-43
2021/11/11 09:14:15;;;;;;;15.80;5.60;;;;;;;4.17;54.05;102587.37;1735263;82;21568;-43
2021/11/11 09:16:41;;;;;;;20.32;5.95;;;;;;;4.34;53.74;102582.08;1735060;82;21283;-43
2021/11/11 09:19:08;;;;;;;25.25;6.03;;;;;;;4.66;53.67;102571.35;1735111;82;20976;-43
2021/11/11 09:21:35;;;;;;;26.23;5.70;;;;;;;4.66;53.67;102571.35;1735213;82;21569;-43
2021/11/11 09:24:02;;;;;;;31.27;6.45;;;;;;;4.77;53.24;102557.28;1735065;81;20968;-42
2021/11/11 09:26:29;;;;;;;20.00;6.37;;;;;;;4.89;53.19;102541.48;1735020;82;21313;-43
2021/11/11 09:28:57;;;;;;;22.05;6.22;;;;;;;5.09;52.71;102529.81;1735145;81;21105;-43
2021/11/11 09:31:24;;;;;;;31.23;6.87;;;;;;;5.09;52.71;102529.81;1735147;82;21565;-43
2021/11/11 09:33:52;;;;;;;16.70;6.37;;;;;;;5.35;50.51;102538.89;1735169;82;20957;-42
2021/11/11 09:36:18;;;;;;;18.87;6.00;;;;;;;5.35;50.51;102538.89;1735190;82;20992;-43
2021/11/11 09:38:46;;;;;;;15.72;6.05;;;;;;;5.22;50.12;102533.72;1735250;82;20960;-43
2021/11/11 09:41:15;;;;;;;28.98;6.90;;;;;;;5.13;50.45;102515.84;1735169;82;21090;-43
2021/11/11 09:43:42;;;;;;;32.33;6.90;;;;;;;5.17;51.20;102516.42;1735187;82;20929;-43
2021/11/11 09:46:12;;;;;;;25.43;7.35;;;;;;;5.21;51.53;102512.70;1735251;82;20984;-43
2021/11/11 09:48:40;;;;;;;19.77;7.60;;;;;;;5.30;51.46;102513.92;1735316;81;20969;-43
2021/11/11 09:51:11;;;;;;;63.60;9.30;;;;;;;5.41;51.71;102513.42;1735412;82;20996;-43
2021/11/11 09:53:57;;;;;;;18.30;7.20;;;;;;;5.41;51.71;102513.42;1735304;81;21123;-43
2021/11/11 09:59:04;;;;;;;12.88;6.60;;;;;;;5.39;52.20;102497.94;1735378;82;21524;-43
2021/11/11 10:01:31;;;;;;;16.57;6.62;;;;;;;5.54;49.41;102497.61;1735122;81;20933;-43
2021/11/11 10:03:58;;;;;;;28.07;7.08;;;;;;;5.58;49.96;102502.45;1735344;82;20929;-43
2021/11/11 10:06:27;;;;;;;29.70;7.53;;;;;;;5.52;49.84;102507.39;1735366;82;21886;-43
2021/11/11 10:08:56;;;;;;;19.57;6.83;;;;;;;5.37;50.54;102494.87;1735254;82;21008;-43
2021/11/11 10:11:34;;;;;;;13.10;6.37;;;;;;;5.16;52.14;102497.98;1735188;82;20960;-43
2021/11/11 10:14:04;;;;;;;11.55;6.30;;;;;;;5.14;53.00;102491.92;1735218;82;21431;-43
2021/11/11 10:16:43;;;;;;;16.23;6.47;;;;;;;5.35;52.94;102498.66;1735349;82;20913;-45
2021/11/11 10:19:10;;;;;;;17.30;6.28;;;;;;;5.62;52.14;102483.75;1735288;82;21794;-44
2021/11/11 10:21:43;;;;;;;15.35;6.17;;;;;;;5.80;50.87;102481.36;1735239;82;20969;-44
2021/11/11 10:27:36;;;;;;;14.73;6.22;;;;;;;6.12;49.67;102482.47;1735251;82;21495;-43
2021/11/11 10:30:26;;;;;;;15.13;7.00;;;;;;;6.11;48.64;102493.58;1738695;81;21624;-43
2021/11/11 10:33:07;;;;;;;13.53;6.47;;;;;;;6.20;49.33;102490.43;1735344;82;21538;-43
2021/11/11 10:35:36;;;;;;;18.02;6.42;;;;;;;6.13;48.79;102484.61;1735311;82;20945;-43
2021/11/11 10:38:08;;;;;;;13.15;6.70;;;;;;;6.08;48.52;102466.88;1735218;81;20980;-43
2021/11/11 10:40:40;;;;;;;12.13;6.60;;;;;;;6.07;47.64;102461.27;1734908;82;20972;-42
2021/11/11 10:43:10;;;;;;;22.07;7.50;;;;;;;6.07;47.88;102463.84;1735152;82;21478;-43
2021/11/11 10:45:40;;;;;;;18.35;6.87;;;;;;;6.08;48.26;102457.88;1735135;81;21086;-43
2021/11/11 10:48:09;;;;;;;18.48;7.28;;;;;;;6.10;47.09;102469.97;1735181;82;21198;-43
2021/11/11 10:50:43;;;;;;;13.85;6.53;;;;;;;6.03;47.92;102459.89;1735184;82;21491;-43
2021/11/11 10:53:11;;;;;;;10.00;6.55;;;;;;;6.06;46.82;102446.24;1714039;82;20976;-42
2021/11/11 10:55:40;;;;;;;10.48;6.47;;;;;;;6.12;46.54;102454.57;1735200;82;21490;-42
2021/11/11 10:58:16;;;;;;;10.98;6.97;;;;;;;6.05;47.12;102443.21;1735232;82;21082;-43
2021/11/11 11:01:00;;;;;;;18.52;7.33;;;;;;;6.11;47.40;102434.43;1735196;81;20976;-43
2021/11/11 11:03:32;;;;;;;16.05;6.75;;;;;;;6.14;47.75;102425.52;1735407;82;21008;-44
2021/11/11 11:06:12;;;;;;;19.15;7.62;;;;;;;6.17;48.12;102410.58;1735103;81;20972;-44
2021/11/11 11:08:57;;;;;;;14.30;7.70;;;;;;;6.18;48.07;102410.64;1735241;81;20984;-43
2021/11/11 11:11:32;;;;;;;24.57;7.97;;;;;;;6.16;48.51;102406.27;1735298;81;21804;-43
2021/11/11 11:14:02;;;;;;;24.18;7.90;;;;;;;6.15;47.23;102396.41;1735130;82;20934;-43
2021/11/11 11:16:33;;;;;;;42.50;8.25;;;;;;;6.15;47.77;102383.95;1735184;82;20992;-43
2021/11/11 11:19:11;;;;;;;19.77;7.55;;;;;;;6.11;47.68;102375.29;1735185;82;21562;-43
2021/11/11 11:21:44;;;;;;;13.62;6.58;;;;;;;6.18;48.65;102375.03;1735489;82;21015;-43
2021/11/11 11:24:18;;;;;;;34.85;6.97;;;;;;;6.23;47.86;102359.75;1745816;81;21046;-43
2021/11/11 11:26:54;;;;;;;15.08;6.78;;;;;;;6.26;47.06;102362.02;1748270;80;21266;-43
2021/11/11 11:29:56;;;;;;;10.40;5.87;;;;;;;6.14;46.16;102356.48;1749434;80;21501;-42
2021/11/11 11:34:38;;;;;;;30.52;6.65;;;;;;;5.99;47.27;102352.61;1749238;82;20930;-44
2021/11/11 11:37:08;;;;;;;11.80;5.47;;;;;;;5.88;46.98;102346.24;1721543;82;21822;-42
2021/11/11 11:39:44;;;;;;;7.95;4.95;;;;;;;5.81;46.49;102337.88;1749060;82;20924;-42
2021/11/11 11:42:20;;;;;;;14.07;5.10;;;;;;;5.75;46.78;102335.98;1749406;80;21317;-43
2021/11/11 11:44:49;;;;;;;22.80;5.72;;;;;;;5.73;47.17;102332.50;1721328;82;20940;-43
2021/11/11 11:47:40;;;;;;;36.33;5.37;;;;;;;5.68;47.58;102325.92;1749502;82;20955;-43
2021/11/11 11:50:28;;;;;;;18.73;4.67;;;;;;;5.75;47.74;102317.60;1749103;82;20948;-43
2021/11/11 11:53:02;;;;;;;14.78;4.92;;;;;;;5.77;47.10;102309.06;1746236;81;21132;-42
2021/11/11 11:58:17;;;;;;;33.08;5.35;;;;;;;5.60;46.76;102306.83;1749159;82;20888;-42
2021/11/11 12:39:42;;;;;;;17.92;6.20;;;;;;;5.08;49.40;102248.23;1749237;81;21529;-43